createdAt,value
2019-05-15T00:00:42.386Z,5.03
2019-05-15T00:03:10.867Z,7.80
2019-05-15T00:05:39.767Z,7.90
2019-05-15T00:08:09.424Z,5.37
2019-05-15T00:10:40.646Z,4.80
2019-05-15T00:13:09.515Z,5.47
2019-05-15T00:15:40.224Z,5.07
2019-05-15T00:18:09.067Z,8.73
2019-05-15T00:20:39.414Z,6.03
2019-05-15T00:23:08.656Z,10.80
2019-05-15T00:25:39.469Z,6.27
2019-05-15T00:28:09.482Z,13.67
2019-05-15T00:30:38.760Z,9.53
2019-05-15T00:33:08.937Z,9.10
2019-05-15T00:35:50.378Z,9.33
2019-05-15T00:38:18.857Z,12.60
2019-05-15T00:40:49.604Z,11.43
2019-05-15T00:43:18.727Z,9.70
2019-05-15T00:45:48.825Z,6.57
2019-05-15T00:48:18.351Z,4.30
2019-05-15T00:50:48.575Z,6.67
2019-05-15T00:53:19.770Z,13.60
2019-05-15T00:55:48.677Z,25.13
2019-05-15T00:58:19.932Z,15.73
2019-05-15T01:00:48.653Z,11.47
2019-05-15T01:03:18.277Z,7.90
2019-05-15T01:05:48.051Z,7.77
2019-05-15T01:08:19.139Z,6.57
2019-05-15T01:10:48.824Z,6.57
2019-05-15T01:13:19.020Z,8.63
2019-05-15T01:15:48.941Z,15.67
2019-05-15T01:18:18.742Z,18.03
2019-05-15T01:20:49.409Z,8.87
2019-05-15T01:23:18.753Z,7.07
2019-05-15T01:25:48.187Z,7.87
2019-05-15T01:28:18.376Z,5.33
2019-05-15T01:30:48.718Z,6.40
2019-05-15T01:33:18.926Z,6.43
2019-05-15T01:35:49.054Z,6.33
2019-05-15T01:38:18.730Z,7.53
2019-05-15T01:40:48.466Z,6.93
2019-05-15T01:43:18.766Z,5.90
2019-05-15T01:45:48.300Z,9.00
2019-05-15T01:48:18.733Z,9.20
2019-05-15T01:50:46.086Z,7.70
2019-05-15T01:53:13.968Z,8.63
2019-05-15T01:55:41.830Z,12.23
2019-05-15T01:58:09.705Z,7.17
2019-05-15T02:00:39.271Z,9.47
2019-05-15T02:03:09.713Z,10.03
2019-05-15T02:05:39.137Z,11.30
2019-05-15T02:08:08.300Z,8.43
2019-05-15T02:10:39.158Z,9.83
2019-05-15T02:13:08.600Z,8.83
2019-05-15T02:15:39.533Z,8.23
2019-05-15T02:18:08.679Z,8.80
2019-05-15T02:20:38.999Z,9.10
2019-05-15T02:23:11.785Z,9.77
2019-05-15T02:25:38.735Z,6.97
2019-05-15T02:28:09.111Z,7.17
2019-05-15T02:30:40.382Z,6.73
2019-05-15T02:33:10.104Z,6.50
2019-05-15T02:35:39.240Z,5.33
2019-05-15T02:38:09.395Z,7.07
2019-05-15T02:40:35.816Z,5.53
2019-05-15T02:43:09.618Z,6.97
2019-05-15T02:45:40.593Z,8.93
2019-05-15T02:48:08.928Z,7.60
2019-05-15T02:50:39.247Z,7.97
2019-05-15T02:53:09.872Z,9.80
2019-05-15T02:55:40.403Z,7.03
2019-05-15T02:58:09.896Z,7.73
2019-05-15T03:00:47.688Z,9.50
2019-05-15T03:03:09.583Z,8.63
2019-05-15T03:05:40.921Z,6.50
2019-05-15T03:08:09.681Z,9.37
2019-05-15T03:10:40.553Z,6.83
2019-05-15T03:13:09.786Z,10.27
2019-05-15T03:15:40.192Z,7.13
2019-05-15T03:18:09.512Z,10.03
2019-05-15T03:20:38.881Z,8.90
2019-05-15T03:23:09.698Z,10.67
2019-05-15T03:25:35.985Z,8.17
2019-05-15T03:28:03.831Z,10.57
2019-05-15T03:30:41.829Z,6.80
2019-05-15T03:33:09.486Z,7.50
2019-05-15T03:35:33.219Z,8.43
2019-05-15T03:38:01.957Z,11.20
2019-05-15T03:40:30.182Z,9.33
2019-05-15T03:42:59.450Z,10.20
2019-05-15T03:45:29.697Z,8.60
2019-05-15T03:48:01.117Z,15.00
2019-05-15T03:50:31.732Z,8.23
2019-05-15T03:53:00.752Z,13.93
2019-05-15T03:55:29.744Z,10.40
2019-05-15T03:57:59.188Z,8.73
2019-05-15T04:00:30.134Z,12.80
2019-05-15T04:02:59.104Z,8.67
2019-05-15T04:05:29.370Z,8.50
2019-05-15T04:07:59.888Z,12.47
2019-05-15T04:10:28.843Z,10.03
2019-05-15T04:12:59.962Z,8.10
2019-05-15T04:15:30.198Z,8.43
2019-05-15T04:18:00.325Z,9.40
2019-05-15T04:20:29.694Z,8.73
2019-05-15T04:23:00.020Z,7.50
2019-05-15T04:25:29.478Z,6.53
2019-05-15T04:27:58.814Z,9.13
2019-05-15T04:30:26.068Z,10.10
2019-05-15T04:32:53.417Z,7.93
2019-05-15T04:35:20.746Z,7.07
2019-05-15T04:37:49.536Z,9.00
2019-05-15T04:40:19.379Z,9.30
2019-05-15T04:42:49.789Z,9.00
2019-05-15T04:45:19.342Z,7.23
2019-05-15T04:47:45.873Z,8.67
2019-05-15T04:50:13.193Z,7.13
2019-05-15T04:52:43.190Z,6.10
2019-05-15T04:55:10.642Z,6.40
2019-05-15T04:57:40.146Z,7.63
2019-05-15T05:00:09.621Z,8.73
2019-05-15T05:02:39.890Z,9.00
2019-05-15T05:05:10.220Z,9.47
2019-05-15T05:07:39.243Z,7.87
2019-05-15T05:10:09.538Z,10.07
2019-05-15T05:12:40.993Z,7.87
2019-05-15T05:15:08.465Z,6.60
2019-05-15T05:17:35.390Z,6.13
2019-05-15T05:20:02.760Z,4.83
2019-05-15T05:22:30.142Z,6.03
2019-05-15T05:24:58.459Z,5.20
2019-05-15T05:27:25.846Z,4.50
2019-05-15T05:29:53.127Z,3.33
2019-05-15T05:32:30.942Z,5.73
2019-05-15T05:34:49.535Z,4.60
2019-05-15T05:37:18.452Z,3.33
2019-05-15T05:39:45.781Z,4.73
2019-05-15T05:42:13.735Z,4.10
2019-05-15T05:44:42.730Z,2.73
2019-05-15T05:47:10.096Z,3.93
2019-05-15T05:49:38.186Z,3.00
2019-05-15T05:52:08.260Z,3.23
2019-05-15T05:54:34.833Z,2.43
2019-05-15T05:57:02.089Z,3.67
2019-05-15T05:59:29.828Z,2.73
2019-05-15T06:01:58.991Z,2.47
2019-05-15T06:04:27.930Z,5.67
2019-05-15T06:07:07.226Z,5.03
2019-05-15T06:09:24.589Z,1.90
2019-05-15T06:11:51.927Z,2.17
2019-05-15T06:14:19.480Z,3.50
2019-05-15T06:16:48.228Z,2.17
2019-05-15T06:19:15.631Z,2.90
2019-05-15T06:21:54.614Z,2.77
2019-05-15T06:24:13.280Z,3.00
2019-05-15T06:26:40.621Z,4.60
2019-05-15T06:29:08.876Z,3.37
2019-05-15T06:31:38.665Z,4.20
2019-05-15T06:34:05.567Z,2.53
2019-05-15T06:36:32.849Z,3.80
2019-05-15T06:39:00.218Z,5.63
2019-05-15T06:41:28.659Z,3.00
2019-05-15T06:43:56.053Z,3.03
2019-05-15T06:46:23.433Z,2.77
2019-05-15T06:48:50.794Z,1.77
2019-05-15T06:51:18.325Z,2.63
2019-05-15T06:53:45.751Z,2.00
2019-05-15T06:56:13.008Z,2.70
2019-05-15T06:58:40.336Z,1.80
2019-05-15T07:01:08.726Z,2.77
2019-05-15T07:03:38.915Z,2.93
2019-05-15T07:06:05.660Z,4.00
2019-05-15T07:08:33.055Z,3.30
2019-05-15T07:11:00.459Z,1.77
2019-05-15T07:13:28.971Z,3.33
2019-05-15T07:15:58.500Z,2.47
2019-05-15T07:18:28.157Z,1.60
2019-05-15T07:20:54.990Z,1.90
2019-05-15T07:23:22.238Z,1.80
2019-05-15T07:25:50.300Z,2.50
2019-05-15T07:28:18.450Z,2.93
2019-05-15T07:30:45.879Z,2.43
2019-05-15T07:33:13.243Z,1.40
2019-05-15T07:35:40.659Z,1.67
2019-05-15T07:38:08.100Z,2.63
2019-05-15T07:40:38.321Z,2.63
2019-05-15T07:43:04.599Z,1.77
2019-05-15T07:45:31.856Z,2.30
2019-05-15T07:47:59.191Z,4.53
2019-05-15T07:50:26.472Z,2.27
2019-05-15T07:52:53.757Z,1.70
2019-05-15T07:55:20.996Z,1.67
2019-05-15T07:57:49.646Z,2.20
2019-05-15T08:00:19.260Z,3.67
2019-05-15T08:02:48.154Z,1.70
2019-05-15T08:05:18.225Z,1.93
2019-05-15T08:07:45.633Z,3.63
2019-05-15T08:10:13.254Z,2.13
2019-05-15T08:12:40.504Z,2.50
2019-05-15T08:15:09.068Z,1.77
2019-05-15T08:17:58.050Z,1.40
2019-05-15T08:20:09.043Z,1.80
2019-05-15T08:22:38.249Z,2.03
2019-05-15T08:25:11.366Z,1.50
2019-05-15T08:27:38.251Z,1.40
2019-05-15T08:30:08.929Z,2.90
2019-05-15T08:32:36.075Z,2.13
2019-05-15T08:37:29.215Z,2.83
2019-05-15T08:39:59.408Z,1.80
2019-05-15T08:42:28.138Z,1.50
2019-05-15T08:44:55.108Z,2.60
2019-05-15T08:47:22.619Z,1.80
2019-05-15T08:49:49.886Z,1.53
2019-05-15T08:52:18.884Z,1.63
2019-05-15T08:54:48.649Z,2.03
2019-05-15T08:57:15.665Z,2.07
2019-05-15T08:59:42.963Z,2.43
2019-05-15T09:04:40.438Z,3.73
2019-05-15T09:07:09.206Z,2.50
2019-05-15T09:09:38.366Z,3.80
2019-05-15T09:12:08.221Z,4.80
2019-05-15T09:14:35.195Z,1.83
2019-05-15T09:17:02.484Z,2.47
2019-05-15T09:19:29.771Z,2.13
2019-05-15T09:21:58.467Z,2.93
2019-05-15T09:24:28.414Z,2.33
2019-05-15T09:26:55.142Z,2.30
2019-05-15T09:29:22.409Z,1.50
2019-05-15T09:31:49.680Z,2.57
2019-05-15T09:34:18.552Z,3.90
2019-05-15T09:36:48.387Z,1.30
2019-05-15T09:39:15.313Z,3.10
2019-05-15T09:41:42.625Z,1.53
2019-05-15T09:44:10.142Z,1.97
2019-05-15T09:46:38.301Z,2.27
2019-05-15T09:49:08.596Z,2.53
2019-05-15T09:51:35.142Z,1.63
2019-05-15T09:54:02.549Z,2.13
2019-05-15T09:56:29.851Z,1.47
2019-05-15T09:58:58.150Z,3.10
2019-05-15T10:01:28.324Z,2.47
2019-05-15T10:03:54.790Z,2.60
2019-05-15T10:06:22.177Z,1.80
2019-05-15T10:08:49.552Z,2.80
2019-05-15T10:11:19.509Z,2.33
2019-05-15T10:13:46.047Z,1.60
2019-05-15T10:16:13.462Z,2.90
2019-05-15T10:18:40.801Z,1.47
2019-05-15T10:21:08.949Z,2.13
2019-05-15T10:23:39.712Z,3.93
2019-05-15T10:26:13.123Z,2.83
2019-05-15T10:28:35.025Z,3.10
2019-05-15T10:31:02.400Z,2.17
2019-05-15T10:33:30.164Z,3.77
2019-05-15T10:35:59.167Z,2.83
2019-05-15T10:38:28.504Z,2.33
2019-05-15T10:41:08.437Z,2.07
2019-05-15T10:43:25.128Z,3.40
2019-05-15T10:45:54.702Z,4.63
2019-05-15T10:48:21.592Z,2.97
2019-05-15T10:50:48.867Z,3.30
2019-05-15T10:53:18.804Z,1.80
2019-05-15T10:55:46.114Z,2.17
2019-05-15T10:58:17.475Z,2.13
2019-05-15T11:00:44.254Z,4.97
2019-05-15T11:03:15.693Z,5.03
2019-05-15T11:06:03.015Z,4.70
2019-05-15T11:08:33.103Z,2.73
2019-05-15T11:11:10.078Z,4.70
2019-05-15T11:13:42.494Z,2.00
2019-05-15T11:16:11.687Z,2.97
2019-05-15T11:18:40.704Z,1.97
2019-05-15T11:21:10.640Z,2.50
2019-05-15T11:23:42.526Z,2.47
2019-05-15T11:26:09.601Z,3.57
2019-05-15T11:28:39.157Z,2.77
2019-05-15T11:31:10.143Z,3.50
2019-05-15T11:33:38.447Z,3.17
2019-05-15T11:36:06.521Z,2.87
2019-05-15T11:38:35.212Z,2.70
2019-05-15T11:41:04.678Z,2.23
2019-05-15T11:43:32.115Z,2.63
2019-05-15T11:45:59.463Z,4.53
2019-05-15T11:48:29.557Z,2.30
2019-05-15T11:50:57.207Z,3.60
2019-05-15T11:53:24.629Z,3.30
2019-05-15T11:55:55.473Z,2.50
2019-05-15T11:58:23.120Z,2.33
2019-05-15T12:00:57.920Z,2.50
2019-05-15T12:03:29.138Z,2.27
2019-05-15T12:05:59.704Z,4.53
2019-05-15T12:08:25.656Z,5.03
2019-05-15T12:10:52.994Z,2.47
2019-05-15T12:13:20.309Z,4.13
2019-05-15T12:15:48.430Z,2.50
2019-05-15T12:18:15.963Z,2.83
2019-05-15T12:20:43.242Z,3.43
2019-05-15T12:23:10.489Z,2.80
2019-05-15T12:25:39.465Z,3.10
2019-05-15T12:28:09.543Z,2.10
2019-05-15T12:30:40.132Z,4.07
2019-05-15T12:33:06.156Z,2.27
2019-05-15T12:35:33.479Z,2.37
2019-05-15T12:38:00.956Z,4.10
2019-05-15T13:00:22.213Z,3.00
2019-05-15T13:02:49.508Z,1.67
2019-05-15T13:05:19.065Z,2.27
2019-05-15T13:07:48.194Z,3.13
2019-05-15T13:10:18.435Z,2.33
2019-05-15T13:12:59.177Z,2.47
2019-05-15T13:15:14.816Z,4.73
2019-05-15T13:17:42.223Z,4.73
2019-05-15T13:20:09.847Z,7.07
2019-05-15T13:22:39.248Z,3.33
2019-05-15T13:25:08.495Z,2.07
2019-05-15T13:27:38.211Z,3.27
2019-05-15T13:30:05.667Z,2.73
2019-05-15T13:32:33.022Z,1.77
2019-05-15T13:35:00.312Z,1.73
2019-05-15T13:37:30.736Z,4.80
2019-05-15T13:39:58.681Z,2.47
2019-05-15T13:42:28.022Z,3.07
2019-05-15T13:44:55.344Z,7.07
2019-05-15T13:47:22.703Z,3.73
2019-05-15T13:49:50.099Z,7.90
2019-05-15T13:52:18.737Z,3.60
2019-05-15T13:54:48.356Z,10.40
2019-05-15T13:57:17.947Z,9.13
2019-05-15T13:59:45.105Z,11.50
2019-05-15T14:02:12.523Z,4.47
2019-05-15T14:04:39.911Z,3.57
2019-05-15T14:07:08.557Z,1.93
2019-05-15T14:09:43.507Z,2.70
2019-05-15T14:12:05.217Z,10.37
2019-05-15T14:14:32.596Z,6.70
2019-05-15T14:16:59.939Z,3.00
2019-05-15T14:19:28.036Z,2.43
2019-05-15T14:21:55.378Z,5.80
2019-05-15T14:24:22.911Z,5.23
2019-05-15T14:26:50.234Z,3.67
2019-05-15T14:29:18.934Z,4.20
2019-05-15T14:31:48.321Z,3.10
2019-05-15T14:34:18.443Z,4.53
2019-05-15T14:36:45.066Z,2.63
2019-05-15T14:39:12.346Z,3.03
2019-05-15T14:41:39.653Z,5.83
2019-05-15T14:44:17.322Z,2.53
2019-05-15T14:46:38.229Z,3.17
2019-05-15T14:49:05.509Z,2.73
2019-05-15T14:51:32.825Z,1.90
2019-05-15T14:54:00.409Z,2.83
2019-05-15T14:56:28.525Z,4.43
2019-05-15T14:58:58.441Z,2.83
2019-05-15T15:01:25.251Z,4.53
2019-05-15T15:03:54.784Z,4.87
2019-05-15T15:06:22.053Z,5.17
2019-05-15T15:08:50.427Z,10.73
2019-05-15T15:11:18.008Z,6.37
2019-05-15T15:13:45.447Z,10.53
2019-05-15T15:16:12.697Z,5.20
2019-05-15T15:18:40.061Z,2.23
2019-05-15T15:21:08.648Z,12.20
2019-05-15T15:23:38.576Z,5.47
2019-05-15T15:26:05.523Z,5.30
2019-05-15T15:28:32.790Z,1.50
2019-05-15T15:31:00.143Z,3.47
2019-05-15T15:33:28.882Z,5.80
2019-05-15T15:35:58.056Z,1.70
2019-05-15T15:38:38.110Z,4.10
2019-05-15T15:40:54.940Z,2.43
2019-05-15T15:43:22.451Z,2.77
2019-05-15T15:45:49.849Z,3.17
2019-05-15T15:48:19.310Z,1.97
2019-05-15T15:50:48.668Z,2.73
2019-05-15T15:53:15.776Z,3.37
2019-05-15T15:55:43.358Z,2.87
2019-05-15T15:58:10.691Z,2.70
2019-05-15T16:00:38.587Z,2.20
2019-05-15T16:03:08.211Z,2.73
2019-05-15T16:05:35.306Z,4.87
2019-05-15T16:08:02.560Z,2.90
2019-05-15T16:10:29.816Z,3.23
2019-05-15T16:12:58.231Z,2.00
2019-05-15T16:15:25.662Z,3.63
2019-05-15T16:17:53.231Z,2.00
2019-05-15T16:20:20.525Z,3.53
2019-05-15T16:22:48.554Z,2.40
2019-05-15T16:25:17.919Z,3.40
2019-05-15T16:27:45.288Z,1.87
2019-05-15T16:30:12.879Z,3.37
2019-05-15T16:33:48.153Z,2.30
2019-05-15T16:36:18.298Z,2.53
2019-05-15T16:38:48.181Z,1.80
2019-05-15T16:41:18.437Z,2.40
2019-05-15T16:43:45.643Z,2.33
2019-05-15T16:46:13.269Z,4.00
2019-05-15T16:48:42.681Z,3.53
2019-05-15T16:51:10.668Z,1.40
2019-05-15T16:53:38.408Z,4.00
2019-05-15T16:56:05.634Z,1.90
2019-05-15T16:58:33.222Z,2.63
2019-05-15T17:01:00.634Z,2.90
2019-05-15T17:03:28.887Z,2.33
2019-05-15T17:05:58.798Z,1.63
2019-05-15T17:08:28.505Z,2.87
2019-05-15T17:10:55.671Z,2.63
2019-05-15T17:13:23.050Z,3.03
2019-05-15T17:15:50.291Z,2.93
2019-05-15T17:18:18.212Z,1.60
2019-05-15T17:20:45.501Z,3.77
2019-05-15T17:23:12.889Z,2.90
2019-05-15T17:25:40.186Z,4.43
2019-05-15T17:28:09.197Z,2.63
2019-05-15T17:30:38.236Z,3.40
2019-05-15T17:33:05.754Z,4.40
2019-05-15T17:35:33.033Z,1.47
2019-05-15T17:38:00.316Z,1.97
2019-05-15T17:40:28.419Z,2.03
2019-05-15T17:42:58.424Z,1.70
2019-05-15T17:45:25.195Z,2.17
2019-05-15T17:47:52.732Z,1.70
2019-05-15T17:50:20.076Z,2.30
2019-05-15T17:52:49.164Z,3.07
2019-05-15T17:55:18.355Z,2.50
2019-05-15T17:57:53.795Z,3.17
2019-05-15T18:00:15.085Z,1.90
2019-05-15T18:02:42.509Z,2.23
2019-05-15T18:05:11.160Z,4.03
2019-05-15T18:07:39.090Z,1.70
2019-05-15T18:10:08.444Z,4.47
2019-05-15T18:12:38.501Z,1.50
2019-05-15T18:15:05.976Z,1.97
2019-05-15T18:17:33.359Z,4.33
2019-05-15T18:20:00.602Z,3.57
2019-05-15T18:22:28.044Z,4.53
2019-05-15T18:24:55.289Z,2.43
2019-05-15T18:27:22.509Z,2.53
2019-05-15T18:29:49.933Z,2.50
2019-05-15T18:32:18.972Z,2.40
2019-05-15T18:34:48.684Z,2.87
2019-05-15T18:37:15.559Z,1.83
2019-05-15T18:39:42.809Z,2.70
2019-05-15T18:42:10.196Z,4.23
2019-05-15T18:44:39.319Z,2.10
2019-05-15T18:47:08.662Z,4.83
2019-05-15T18:49:37.990Z,2.27
2019-05-15T18:52:05.198Z,3.27
2019-05-15T18:54:32.667Z,2.27
2019-05-15T18:57:00.686Z,2.70
2019-05-15T18:59:28.578Z,4.03
2019-05-15T19:01:58.621Z,2.23
2019-05-15T19:04:28.710Z,2.83
2019-05-15T19:06:55.525Z,2.60
2019-05-15T19:09:22.928Z,5.57
2019-05-15T19:11:50.230Z,3.40
2019-05-15T19:14:19.170Z,4.03
2019-05-15T19:16:48.456Z,4.80
2019-05-15T19:19:18.431Z,4.17
2019-05-15T19:21:45.252Z,8.80
2019-05-15T19:24:12.631Z,4.63
2019-05-15T19:26:40.861Z,2.87
2019-05-15T19:29:08.416Z,2.10
2019-05-15T19:31:35.671Z,2.27
2019-05-15T19:34:02.919Z,2.63
2019-05-15T19:36:30.376Z,3.60
2019-05-15T19:38:57.652Z,2.37
2019-05-15T19:41:25.018Z,2.37
2019-05-15T19:43:52.280Z,2.00
2019-05-15T19:46:19.549Z,3.20
2019-05-15T19:48:48.819Z,3.97
2019-05-15T19:51:18.157Z,4.40
2019-05-15T19:53:47.736Z,3.80
2019-05-15T19:56:14.731Z,3.10
2019-05-15T19:58:42.062Z,2.90
2019-05-15T20:01:09.437Z,1.60
2019-05-15T20:03:49.374Z,2.67
2019-05-15T20:06:07.891Z,3.37
2019-05-15T20:08:38.386Z,1.90
2019-05-15T20:11:05.707Z,2.73
2019-05-15T20:13:33.567Z,2.00
2019-05-15T20:16:00.934Z,2.50
2019-05-15T20:18:28.279Z,2.37
2019-05-15T20:20:58.341Z,4.87
2019-05-15T20:23:25.106Z,3.63
2019-05-15T20:25:52.568Z,3.37
2019-05-15T20:28:19.931Z,3.17
2019-05-15T20:30:48.187Z,4.57
2019-05-15T20:33:17.828Z,3.63
2019-05-15T20:35:45.029Z,4.10
2019-05-15T20:38:12.279Z,6.60
2019-05-15T20:40:39.739Z,7.07
2019-05-15T20:43:08.195Z,3.50
2019-05-15T20:45:35.945Z,2.23
2019-05-15T20:48:03.595Z,3.47
2019-05-15T20:50:30.885Z,2.63
2019-05-15T20:52:58.807Z,2.97
2019-05-15T20:55:26.491Z,2.87
2019-05-15T20:57:53.889Z,3.10
2019-05-15T21:00:21.390Z,2.97
2019-05-15T21:02:48.841Z,3.23
2019-05-15T21:05:18.366Z,5.23
2019-05-15T21:07:47.938Z,3.30
2019-05-15T21:10:14.803Z,4.37
2019-05-15T21:12:42.142Z,2.77
2019-05-15T21:15:09.578Z,5.50
2019-05-15T21:17:40.367Z,4.17
2019-05-15T21:20:09.045Z,3.67
2019-05-15T21:22:35.523Z,2.70
2019-05-15T21:25:02.964Z,2.67
2019-05-15T21:27:32.500Z,4.07
2019-05-15T21:29:59.550Z,2.67
2019-05-15T21:32:28.527Z,2.57
2019-05-15T21:34:58.273Z,3.13
2019-05-15T21:37:27.510Z,3.53
2019-05-15T21:39:58.905Z,4.43
2019-05-15T21:42:25.976Z,2.20
2019-05-15T21:44:53.254Z,4.77
2019-05-15T21:47:21.034Z,2.30
2019-05-15T21:49:49.252Z,3.37
2019-05-15T21:52:18.525Z,2.37
2019-05-15T21:54:47.477Z,2.53
2019-05-15T21:57:32.402Z,3.53
2019-05-15T21:59:45.353Z,4.30
2019-05-15T22:02:12.727Z,2.63
2019-05-15T22:04:51.788Z,2.50
2019-05-15T22:07:10.216Z,3.37
2019-05-15T22:09:38.158Z,5.67
2019-05-15T22:12:06.299Z,17.17
2019-05-15T22:14:33.577Z,4.27
2019-05-15T22:17:00.879Z,3.67
2019-05-15T22:19:30.189Z,3.10
2019-05-15T22:21:58.636Z,2.60
2019-05-15T22:24:28.414Z,2.50
2019-05-15T22:26:55.233Z,3.17
2019-05-15T22:29:22.555Z,2.00
2019-05-15T22:31:49.843Z,1.50
2019-05-15T22:34:18.459Z,1.60
2019-05-15T22:36:46.041Z,3.33
2019-05-15T22:39:13.399Z,1.63
2019-05-15T22:41:40.635Z,2.40
2019-05-15T22:44:10.032Z,2.47
2019-05-15T22:46:38.261Z,2.97
2019-05-15T22:49:05.700Z,3.10
2019-05-15T22:51:33.082Z,1.53
2019-05-15T22:54:00.450Z,3.93
2019-05-15T22:56:29.661Z,1.57
2019-05-15T22:58:58.407Z,3.77
2019-05-15T23:01:26.438Z,4.20
2019-05-15T23:03:54.435Z,1.73
2019-05-15T23:06:21.852Z,1.77
2019-05-15T23:08:49.571Z,1.90
2019-05-15T23:11:18.284Z,2.60
2019-05-15T23:13:48.434Z,2.93
2019-05-15T23:16:18.182Z,2.13
2019-05-15T23:18:45.104Z,1.60
2019-05-15T23:21:12.493Z,1.50
2019-05-15T23:23:39.835Z,3.77
2019-05-15T23:26:07.079Z,5.23
2019-05-15T23:28:34.315Z,2.20
2019-05-15T23:31:01.573Z,2.40
2019-05-15T23:33:28.905Z,2.47
2019-05-15T23:35:58.566Z,2.30
2019-05-15T23:38:25.468Z,3.30
2019-05-15T23:40:52.725Z,2.33
2019-05-15T23:43:20.013Z,2.73
2019-05-15T23:45:48.388Z,2.37
2019-05-15T23:48:15.813Z,1.63
2019-05-15T23:50:43.148Z,1.63
2019-05-15T23:53:10.446Z,3.00
2019-05-15T23:55:38.760Z,2.23
2019-05-15T23:58:05.981Z,2.30
